createdAt,value
2023-03-16T00:00:46.986Z,0.40
2023-03-16T00:03:19.438Z,0.30
2023-03-16T00:05:50.668Z,0.30
2023-03-16T00:08:19.186Z,0.20
2023-03-16T00:10:46.965Z,0.20
2023-03-16T00:13:15.341Z,0.20
2023-03-16T00:15:42.653Z,0.20
2023-03-16T00:18:09.352Z,0.20
2023-03-16T00:20:36.163Z,0.10
2023-03-16T00:23:02.743Z,0.10
2023-03-16T00:25:29.751Z,0.10
2023-03-16T00:27:56.407Z,0.10
2023-03-16T00:30:23.061Z,0.10
2023-03-16T00:32:49.830Z,0.00
2023-03-16T00:35:16.609Z,0.00
2023-03-16T00:37:44.144Z,0.00
2023-03-16T00:40:12.638Z,0.00
2023-03-16T00:42:39.605Z,0.00
2023-03-16T00:45:06.983Z,0.00
2023-03-16T00:47:34.759Z,0.10
2023-03-16T00:50:02.338Z,0.10
2023-03-16T00:52:29.566Z,0.10
2023-03-16T00:54:56.720Z,0.10
2023-03-16T00:57:25.420Z,0.10
2023-03-16T00:59:52.554Z,0.20
2023-03-16T01:02:23.290Z,0.20
2023-03-16T01:04:51.695Z,0.10
2023-03-16T01:07:18.696Z,0.10
2023-03-16T01:09:45.322Z,0.10
2023-03-16T01:12:17.890Z,0.20
2023-03-16T01:14:47.757Z,0.10
2023-03-16T01:17:16.107Z,0.10
2023-03-16T01:19:43.331Z,0.00
2023-03-16T01:22:11.720Z,0.00
2023-03-16T01:24:39.400Z,0.00
2023-03-16T01:27:06.809Z,0.00
2023-03-16T01:29:33.795Z,0.10
2023-03-16T01:32:01.526Z,0.10
2023-03-16T01:34:28.567Z,0.10
2023-03-16T01:36:55.810Z,0.10
2023-03-16T01:39:23.272Z,0.10
2023-03-16T01:41:49.940Z,0.00
2023-03-16T01:44:24.228Z,0.10
2023-03-16T01:46:51.102Z,0.10
2023-03-16T01:49:48.058Z,0.10
2023-03-16T01:52:33.411Z,0.10
2023-03-16T01:55:13.714Z,0.00
2023-03-16T01:57:44.500Z,-0.10
2023-03-16T02:00:23.643Z,-0.10
2023-03-16T02:02:55.493Z,-0.10
2023-03-16T02:05:38.724Z,-0.10
2023-03-16T02:08:06.657Z,-0.10
2023-03-16T02:10:34.787Z,-0.20
2023-03-16T02:13:01.899Z,-0.30
2023-03-16T02:15:28.631Z,-0.30
2023-03-16T02:17:57.775Z,-0.30
2023-03-16T02:20:24.366Z,-0.20
2023-03-16T02:22:54.223Z,-0.30
2023-03-16T02:25:29.200Z,-0.30
2023-03-16T02:28:10.752Z,-0.30
2023-03-16T02:30:37.514Z,-0.30
2023-03-16T02:33:07.442Z,-0.30
2023-03-16T02:35:34.388Z,-0.30
2023-03-16T02:38:01.783Z,-0.20
2023-03-16T02:40:31.066Z,-0.20
2023-03-16T02:43:05.198Z,-0.30
2023-03-16T02:45:44.013Z,-0.30
2023-03-16T02:48:16.587Z,-0.30
2023-03-16T02:50:49.600Z,-0.30
2023-03-16T02:53:16.849Z,-0.30
2023-03-16T02:55:44.874Z,-0.30
2023-03-16T02:58:12.052Z,-0.40
2023-03-16T03:00:38.760Z,-0.40
2023-03-16T03:03:08.357Z,-0.40
2023-03-16T03:05:35.607Z,-0.40
2023-03-16T03:08:02.683Z,-0.30
2023-03-16T03:10:29.668Z,-0.30
2023-03-16T03:12:57.480Z,-0.20
2023-03-16T03:15:24.666Z,-0.10
2023-03-16T03:17:51.779Z,0.00
2023-03-16T03:20:19.768Z,0.00
2023-03-16T03:22:48.529Z,-0.10
2023-03-16T03:25:18.567Z,-0.10
2023-03-16T03:27:46.324Z,-0.10
2023-03-16T03:30:17.768Z,-0.10
2023-03-16T03:32:44.826Z,0.00
2023-03-16T03:35:14.244Z,-0.10
2023-03-16T03:37:42.821Z,0.00
2023-03-16T03:40:12.218Z,0.00
2023-03-16T03:42:39.757Z,-0.10
2023-03-16T03:45:07.840Z,-0.20
2023-03-16T03:47:34.483Z,-0.20
2023-03-16T03:50:01.113Z,-0.30
2023-03-16T03:52:28.907Z,-0.30
2023-03-16T03:54:55.602Z,-0.30
2023-03-16T03:57:22.270Z,-0.30
2023-03-16T03:59:48.889Z,-0.20
2023-03-16T04:02:15.808Z,-0.20
2023-03-16T04:04:44.242Z,-0.20
2023-03-16T04:07:11.323Z,-0.20
2023-03-16T04:09:38.332Z,-0.20
2023-03-16T04:12:06.221Z,-0.20
2023-03-16T04:14:33.556Z,-0.20
2023-03-16T04:17:00.399Z,-0.20
2023-03-16T04:19:27.083Z,-0.10
2023-03-16T04:21:53.900Z,-0.20
2023-03-16T04:24:22.230Z,-0.10
2023-03-16T04:26:48.931Z,-0.10
2023-03-16T04:29:18.106Z,-0.10
2023-03-16T04:31:45.633Z,-0.10
2023-03-16T04:34:12.709Z,-0.10
2023-03-16T04:36:39.646Z,-0.20
2023-03-16T04:39:06.795Z,-0.20
2023-03-16T04:41:33.421Z,-0.20
2023-03-16T04:44:00.073Z,-0.30
2023-03-16T04:46:27.318Z,-0.20
2023-03-16T04:48:54.303Z,-0.20
2023-03-16T04:51:21.538Z,-0.20
2023-03-16T04:53:48.435Z,-0.30
2023-03-16T04:56:19.699Z,-0.30
2023-03-16T04:58:48.062Z,-0.40
2023-03-16T05:01:14.957Z,-0.40
2023-03-16T05:03:42.874Z,-0.40
2023-03-16T05:06:11.876Z,-0.50
2023-03-16T05:08:38.627Z,-0.50
2023-03-16T05:11:05.626Z,-0.50
2023-03-16T05:13:32.855Z,-0.50
2023-03-16T05:16:00.137Z,-0.50
2023-03-16T05:18:27.135Z,-0.50
2023-03-16T05:20:55.906Z,-0.50
2023-03-16T05:23:23.251Z,-0.50
2023-03-16T05:25:50.847Z,-0.40
2023-03-16T05:28:17.964Z,-0.50
2023-03-16T05:30:47.941Z,-0.50
2023-03-16T05:33:14.597Z,-0.50
2023-03-16T05:35:41.372Z,-0.50
2023-03-16T05:38:09.143Z,-0.50
2023-03-16T05:40:37.173Z,-0.40
2023-03-16T05:43:04.386Z,-0.40
2023-03-16T05:45:31.022Z,-0.40
2023-03-16T05:47:57.658Z,-0.30
2023-03-16T05:50:24.667Z,-0.20
2023-03-16T05:52:51.296Z,-0.20
2023-03-16T05:55:18.579Z,-0.10
2023-03-16T05:57:45.284Z,-0.10
2023-03-16T06:00:15.650Z,0.10
2023-03-16T06:02:51.549Z,0.30
2023-03-16T06:05:19.928Z,0.20
2023-03-16T06:07:46.540Z,0.30
2023-03-16T06:10:13.709Z,0.40
2023-03-16T06:12:41.181Z,0.50
2023-03-16T06:15:08.983Z,0.60
2023-03-16T06:17:36.811Z,0.70
2023-03-16T06:20:09.700Z,0.80
2023-03-16T06:22:41.117Z,1.00
2023-03-16T06:25:09.812Z,1.10
2023-03-16T06:27:37.088Z,1.20
2023-03-16T06:30:06.340Z,1.30
2023-03-16T06:32:33.039Z,1.40
2023-03-16T06:35:02.026Z,1.50
2023-03-16T06:37:28.998Z,1.70
2023-03-16T06:39:55.972Z,1.80
2023-03-16T06:42:23.771Z,1.90
2023-03-16T06:44:50.357Z,2.00
2023-03-16T06:47:17.020Z,2.20
2023-03-16T06:49:43.652Z,2.20
2023-03-16T06:52:10.712Z,2.40
2023-03-16T06:54:37.615Z,2.50
2023-03-16T06:57:04.381Z,2.60
2023-03-16T06:59:31.258Z,2.80
2023-03-16T07:01:57.903Z,2.80
2023-03-16T07:04:24.626Z,3.00
2023-03-16T07:06:51.585Z,3.10
2023-03-16T07:09:18.311Z,3.40
2023-03-16T07:11:44.910Z,3.10
2023-03-16T07:14:11.881Z,2.90
2023-03-16T07:16:38.565Z,2.90
2023-03-16T07:19:05.245Z,3.10
2023-03-16T07:21:39.088Z,3.20
2023-03-16T07:24:06.677Z,3.10
2023-03-16T07:26:33.298Z,3.30
2023-03-16T07:29:00.005Z,3.40
2023-03-16T07:31:26.984Z,3.60
2023-03-16T07:33:53.529Z,3.80
2023-03-16T07:36:20.618Z,3.80
2023-03-16T07:38:47.377Z,3.90
2023-03-16T07:41:14.158Z,4.10
2023-03-16T07:43:40.856Z,3.50
2023-03-16T07:46:07.488Z,3.50
2023-03-16T07:48:34.130Z,3.40
2023-03-16T07:51:00.862Z,3.50
2023-03-16T07:53:27.503Z,3.50
2023-03-16T07:55:54.103Z,3.70
2023-03-16T07:58:21.609Z,3.70
2023-03-16T08:00:48.187Z,3.70
2023-03-16T08:03:15.013Z,3.90
2023-03-16T08:05:41.681Z,3.70
2023-03-16T08:08:09.784Z,3.70
2023-03-16T08:10:36.543Z,3.60
2023-03-16T08:13:04.894Z,3.70
2023-03-16T08:15:33.982Z,3.70
2023-03-16T08:18:02.350Z,4.10
2023-03-16T08:20:30.019Z,4.40
2023-03-16T08:22:57.095Z,4.50
2023-03-16T08:25:23.749Z,4.70
2023-03-16T08:27:50.396Z,4.90
2023-03-16T08:30:17.557Z,4.70
2023-03-16T08:32:44.457Z,4.50
2023-03-16T08:35:13.904Z,4.80
2023-03-16T08:37:41.623Z,5.10
2023-03-16T08:40:15.851Z,5.20
2023-03-16T08:42:43.098Z,4.90
2023-03-16T08:45:13.809Z,5.20
2023-03-16T08:47:41.317Z,5.30
2023-03-16T08:50:09.340Z,5.30
2023-03-16T08:52:36.969Z,5.50
2023-03-16T08:55:10.252Z,5.70
2023-03-16T08:57:39.248Z,5.20
2023-03-16T09:00:12.968Z,5.70
2023-03-16T09:02:41.727Z,5.90
2023-03-16T09:05:11.039Z,5.80
2023-03-16T09:07:39.311Z,5.90
2023-03-16T09:10:07.327Z,6.20
2023-03-16T09:12:37.932Z,6.50
2023-03-16T09:15:05.760Z,7.00
2023-03-16T09:17:33.412Z,6.90
2023-03-16T09:20:11.565Z,6.70
2023-03-16T09:22:48.073Z,6.90
2023-03-16T09:25:15.561Z,7.00
2023-03-16T09:27:42.636Z,7.20
2023-03-16T09:30:10.384Z,7.20
2023-03-16T09:32:37.380Z,7.10
2023-03-16T09:35:06.238Z,7.30
2023-03-16T09:37:44.748Z,7.20
2023-03-16T09:40:27.738Z,6.80
2023-03-16T09:43:22.709Z,6.60
2023-03-16T09:46:02.936Z,6.40
2023-03-16T09:48:34.145Z,6.70
2023-03-16T09:51:04.791Z,6.90
2023-03-16T09:53:38.076Z,7.30
2023-03-16T09:56:10.045Z,7.60
2023-03-16T09:58:37.069Z,7.30
2023-03-16T10:01:22.424Z,7.20
2023-03-16T10:04:17.156Z,7.20
2023-03-16T10:07:02.758Z,7.00
2023-03-16T10:09:39.689Z,7.40
2023-03-16T10:12:08.613Z,7.70
2023-03-16T10:14:41.012Z,7.90
2023-03-16T10:17:19.655Z,8.00
2023-03-16T10:19:54.316Z,8.00
2023-03-16T10:22:26.516Z,8.50
2023-03-16T10:25:07.602Z,8.60
2023-03-16T10:27:39.571Z,8.00
2023-03-16T10:30:24.850Z,8.20
2023-03-16T10:32:52.157Z,8.40
2023-03-16T10:35:48.918Z,8.60
2023-03-16T10:38:38.744Z,7.60
2023-03-16T10:41:17.932Z,8.10
2023-03-16T10:43:45.785Z,8.70
2023-03-16T10:46:14.893Z,8.90
2023-03-16T10:48:42.519Z,9.00
2023-03-16T10:51:15.052Z,9.00
2023-03-16T10:53:44.486Z,9.20
2023-03-16T10:56:20.002Z,9.90
2023-03-16T10:58:46.853Z,10.60
2023-03-16T11:01:20.738Z,10.60
2023-03-16T11:03:55.167Z,10.10
2023-03-16T11:06:30.530Z,9.20
2023-03-16T11:09:13.944Z,9.70
2023-03-16T11:11:46.342Z,10.10
2023-03-16T11:14:15.613Z,10.30
2023-03-16T11:17:05.929Z,9.40
2023-03-16T11:19:54.340Z,9.90
2023-03-16T11:22:25.344Z,10.80
2023-03-16T11:25:00.859Z,11.20
2023-03-16T11:27:42.042Z,11.90
2023-03-16T11:30:24.527Z,11.60
2023-03-16T11:32:53.929Z,11.40
2023-03-16T11:35:57.919Z,11.60
2023-03-16T11:38:48.990Z,11.80
2023-03-16T11:41:34.778Z,10.30
2023-03-16T11:44:27.696Z,9.70
2023-03-16T11:47:23.517Z,10.10
2023-03-16T11:50:15.664Z,10.40
2023-03-16T11:53:00.225Z,11.60
2023-03-16T11:55:51.919Z,11.80
2023-03-16T11:58:38.210Z,11.30
2023-03-16T12:01:23.307Z,10.70
2023-03-16T12:03:57.079Z,10.40
2023-03-16T12:06:50.814Z,10.30
2023-03-16T12:09:44.416Z,9.90
2023-03-16T12:12:13.771Z,10.30
2023-03-16T12:15:08.082Z,10.10
2023-03-16T12:17:37.731Z,10.50
2023-03-16T12:20:15.494Z,10.80
2023-03-16T12:22:46.023Z,10.50
2023-03-16T12:25:23.910Z,10.30
2023-03-16T12:27:54.443Z,10.10
2023-03-16T12:31:04.099Z,10.00
2023-03-16T12:33:42.655Z,9.80
2023-03-16T12:36:36.861Z,9.90
2023-03-16T12:39:14.151Z,10.10
2023-03-16T12:42:04.618Z,9.30
2023-03-16T12:44:56.616Z,9.20
2023-03-16T12:47:37.980Z,9.50
2023-03-16T12:50:08.104Z,9.70
2023-03-16T12:52:45.543Z,9.80
2023-03-16T12:55:21.117Z,9.70
2023-03-16T12:57:51.484Z,9.40
2023-03-16T13:00:19.520Z,9.50
2023-03-16T13:02:53.635Z,9.30
2023-03-16T13:05:31.791Z,9.20
2023-03-16T13:08:08.968Z,9.30
2023-03-16T13:10:37.435Z,9.70
2023-03-16T13:13:25.563Z,9.90
2023-03-16T13:16:10.082Z,9.90
2023-03-16T13:18:44.974Z,10.10
2023-03-16T13:21:34.773Z,10.10
2023-03-16T13:24:13.979Z,10.20
2023-03-16T13:26:49.893Z,10.10
2023-03-16T13:29:16.514Z,10.10
2023-03-16T13:31:43.450Z,9.90
2023-03-16T13:34:15.281Z,9.80
2023-03-16T13:36:45.291Z,9.60
2023-03-16T13:39:30.258Z,9.60
2023-03-16T13:42:04.832Z,9.70
2023-03-16T13:44:32.835Z,9.50
2023-03-16T13:47:07.322Z,9.50
2023-03-16T13:49:42.631Z,9.40
2023-03-16T13:52:19.616Z,9.50
2023-03-16T13:54:46.673Z,9.60
2023-03-16T13:57:15.206Z,9.70
2023-03-16T13:59:43.583Z,9.70
2023-03-16T14:02:20.759Z,9.60
2023-03-16T14:04:47.949Z,9.40
2023-03-16T14:07:20.050Z,9.50
2023-03-16T14:09:46.950Z,9.60
2023-03-16T14:12:18.993Z,9.50
2023-03-16T14:14:54.649Z,9.50
2023-03-16T14:17:23.301Z,9.50
2023-03-16T14:19:58.584Z,9.50
2023-03-16T14:22:37.728Z,9.30
2023-03-16T14:25:06.100Z,9.10
2023-03-16T14:27:43.928Z,9.20
2023-03-16T14:30:27.857Z,9.20
2023-03-16T14:33:04.370Z,9.30
2023-03-16T14:35:32.424Z,9.30
2023-03-16T14:38:32.683Z,9.20
2023-03-16T14:41:11.947Z,9.10
2023-03-16T14:43:59.532Z,9.10
2023-03-16T14:46:32.919Z,9.00
2023-03-16T14:49:02.064Z,9.00
2023-03-16T14:51:29.866Z,9.10
2023-03-16T14:53:56.492Z,9.30
2023-03-16T14:56:23.299Z,9.20
2023-03-16T14:58:49.948Z,9.30
2023-03-16T15:01:20.391Z,9.30
2023-03-16T15:03:47.437Z,9.30
2023-03-16T15:06:15.217Z,9.30
2023-03-16T15:08:45.074Z,9.20
2023-03-16T15:11:12.618Z,9.10
2023-03-16T15:13:42.163Z,9.20
2023-03-16T15:16:14.004Z,9.00
2023-03-16T15:18:41.759Z,9.10
2023-03-16T15:21:14.292Z,9.00
2023-03-16T15:23:42.969Z,9.10
2023-03-16T15:26:11.996Z,9.10
2023-03-16T15:28:38.709Z,9.20
2023-03-16T15:31:06.262Z,9.10
2023-03-16T15:33:33.588Z,9.10
2023-03-16T15:36:02.373Z,9.10
2023-03-16T15:38:32.190Z,9.10
2023-03-16T15:40:59.376Z,9.00
2023-03-16T15:43:28.865Z,8.90
2023-03-16T15:45:57.374Z,9.00
2023-03-16T15:48:25.272Z,9.00
2023-03-16T15:51:06.495Z,9.00
2023-03-16T15:53:49.836Z,9.10
2023-03-16T15:56:21.960Z,9.10
2023-03-16T15:58:49.657Z,9.10
2023-03-16T16:01:27.472Z,9.10
2023-03-16T16:03:55.998Z,9.20
2023-03-16T16:06:23.983Z,9.10
2023-03-16T16:08:50.647Z,8.90
2023-03-16T16:11:28.130Z,9.00
2023-03-16T16:13:57.035Z,8.90
2023-03-16T16:16:25.972Z,9.00
2023-03-16T16:18:52.644Z,8.90
2023-03-16T16:21:24.985Z,8.80
2023-03-16T16:23:52.739Z,8.80
2023-03-16T16:26:50.530Z,8.80
2023-03-16T16:29:30.616Z,8.80
2023-03-16T16:31:57.517Z,8.70
2023-03-16T16:34:25.563Z,8.70
2023-03-16T16:36:53.982Z,8.70
2023-03-16T16:39:21.788Z,8.70
2023-03-16T16:41:50.782Z,8.70
2023-03-16T16:44:27.358Z,8.70
2023-03-16T16:46:54.908Z,8.70
2023-03-16T16:49:24.904Z,8.60
2023-03-16T16:51:52.809Z,8.60
2023-03-16T16:54:25.432Z,8.60
2023-03-16T16:56:56.244Z,8.60
2023-03-16T16:59:34.427Z,8.50
2023-03-16T17:02:03.246Z,8.40
2023-03-16T17:04:30.256Z,8.40
2023-03-16T17:07:00.740Z,8.40
2023-03-16T17:09:28.652Z,8.40
2023-03-16T17:11:58.702Z,8.30
2023-03-16T17:14:28.061Z,8.30
2023-03-16T17:16:54.996Z,8.30
2023-03-16T17:19:25.102Z,8.20
2023-03-16T17:21:53.166Z,8.20
2023-03-16T17:24:19.811Z,8.10
2023-03-16T17:26:50.753Z,8.00
2023-03-16T17:29:22.400Z,7.80
2023-03-16T17:31:49.949Z,7.80
2023-03-16T17:34:20.268Z,7.70
2023-03-16T17:36:47.584Z,7.60
2023-03-16T17:39:31.685Z,7.60
2023-03-16T17:42:07.184Z,7.50
2023-03-16T17:44:37.931Z,7.40
2023-03-16T17:47:14.818Z,7.40
2023-03-16T17:49:41.536Z,7.40
2023-03-16T17:52:37.146Z,7.30
2023-03-16T17:55:04.194Z,7.20
2023-03-16T17:57:33.289Z,7.20
2023-03-16T18:00:01.452Z,7.00
2023-03-16T18:02:49.607Z,7.00
2023-03-16T18:05:19.151Z,6.90
2023-03-16T18:07:46.796Z,7.00
2023-03-16T18:10:19.090Z,6.90
2023-03-16T18:12:49.103Z,6.90
2023-03-16T18:15:20.980Z,6.90
2023-03-16T18:17:48.352Z,6.90
2023-03-16T18:20:23.147Z,6.90
2023-03-16T18:22:50.153Z,6.90
2023-03-16T18:25:36.072Z,6.80
2023-03-16T18:28:02.898Z,6.80
2023-03-16T18:30:30.444Z,6.70
2023-03-16T18:32:58.427Z,6.80
2023-03-16T18:35:25.466Z,6.80
2023-03-16T18:37:54.717Z,6.70
2023-03-16T18:40:23.544Z,6.70
2023-03-16T18:42:50.921Z,6.80
2023-03-16T18:45:17.984Z,6.80
2023-03-16T18:47:53.360Z,6.70
2023-03-16T18:50:26.291Z,6.70
2023-03-16T18:52:54.707Z,6.70
2023-03-16T18:55:24.068Z,6.70
2023-03-16T18:57:52.763Z,6.60
2023-03-16T19:00:22.587Z,6.60
2023-03-16T19:02:58.806Z,6.60
2023-03-16T19:05:35.644Z,6.70
2023-03-16T19:08:04.752Z,6.60
2023-03-16T19:10:37.428Z,6.50
2023-03-16T19:13:09.657Z,6.50
2023-03-16T19:15:36.398Z,6.40
2023-03-16T19:18:03.312Z,6.40
2023-03-16T19:20:32.818Z,6.30
2023-03-16T19:23:06.453Z,6.20
2023-03-16T19:25:41.460Z,6.20
2023-03-16T19:28:14.586Z,6.40
2023-03-16T19:30:41.757Z,6.40
2023-03-16T19:33:19.620Z,6.30
2023-03-16T19:35:51.769Z,6.20
2023-03-16T19:38:19.719Z,6.20
2023-03-16T19:40:48.907Z,6.20
2023-03-16T19:43:18.382Z,6.30
2023-03-16T19:45:45.563Z,6.20
2023-03-16T19:48:20.995Z,6.10
2023-03-16T19:50:49.535Z,5.90
2023-03-16T19:53:20.717Z,5.90
2023-03-16T19:55:48.623Z,5.90
2023-03-16T19:58:39.186Z,5.90
2023-03-16T20:01:13.256Z,5.80
2023-03-16T20:03:39.915Z,5.70
2023-03-16T20:06:08.532Z,5.70
2023-03-16T20:08:35.151Z,5.80
2023-03-16T20:11:07.356Z,5.80
2023-03-16T20:13:35.276Z,5.60
2023-03-16T20:16:03.430Z,5.70
2023-03-16T20:18:30.112Z,5.60
2023-03-16T20:20:57.215Z,5.60
2023-03-16T20:23:26.226Z,5.50
2023-03-16T20:26:02.050Z,5.60
2023-03-16T20:28:36.090Z,5.50
2023-03-16T20:31:05.037Z,5.60
2023-03-16T20:33:32.008Z,5.50
2023-03-16T20:35:58.745Z,5.50
2023-03-16T20:38:25.622Z,5.40
2023-03-16T20:40:54.300Z,5.40
2023-03-16T20:43:27.461Z,5.40
2023-03-16T20:45:56.568Z,5.30
2023-03-16T20:48:25.466Z,5.30
2023-03-16T20:50:56.234Z,5.40
2023-03-16T20:53:23.368Z,5.20
2023-03-16T20:55:51.394Z,5.30
2023-03-16T20:58:26.901Z,5.20
2023-03-16T21:00:57.590Z,5.10
2023-03-16T21:03:27.484Z,5.20
2023-03-16T21:05:55.484Z,5.10
2023-03-16T21:08:22.563Z,5.20
2023-03-16T21:10:51.738Z,5.20
2023-03-16T21:13:29.559Z,5.20
2023-03-16T21:15:59.628Z,5.10
2023-03-16T21:18:26.615Z,5.00
2023-03-16T21:20:53.670Z,5.00
2023-03-16T21:23:23.217Z,5.00
2023-03-16T21:25:56.671Z,5.10
2023-03-16T21:28:25.313Z,5.10
2023-03-16T21:30:54.783Z,5.10
2023-03-16T21:33:29.894Z,5.10
2023-03-16T21:35:57.854Z,4.90
2023-03-16T21:38:26.006Z,4.90
2023-03-16T21:40:52.721Z,4.90
2023-03-16T21:43:19.425Z,4.90
2023-03-16T21:45:47.014Z,4.90
2023-03-16T21:48:24.107Z,4.80
2023-03-16T21:50:52.334Z,4.80
2023-03-16T21:53:20.253Z,4.90
2023-03-16T21:55:47.281Z,4.80
2023-03-16T21:58:14.063Z,4.80
2023-03-16T22:00:41.544Z,4.70
2023-03-16T22:03:23.891Z,4.80
2023-03-16T22:05:51.104Z,4.90
2023-03-16T22:08:20.048Z,4.90
2023-03-16T22:10:47.098Z,4.90
2023-03-16T22:13:13.895Z,4.80
2023-03-16T22:15:42.437Z,4.70
2023-03-16T22:18:37.073Z,4.80
2023-03-16T22:21:30.167Z,4.80
2023-03-16T22:23:57.837Z,4.70
2023-03-16T22:26:25.449Z,4.80
2023-03-16T22:28:53.035Z,4.80
2023-03-16T22:31:38.639Z,4.80
2023-03-16T22:34:06.370Z,4.70
2023-03-16T22:36:33.773Z,4.70
2023-03-16T22:39:05.449Z,4.70
2023-03-16T22:41:32.287Z,4.70
2023-03-16T22:43:59.649Z,4.80
2023-03-16T22:46:27.725Z,4.80
2023-03-16T22:48:56.133Z,4.90
2023-03-16T22:51:25.771Z,4.90
2023-03-16T22:53:56.050Z,4.90
2023-03-16T22:56:24.120Z,4.90
2023-03-16T22:58:54.838Z,4.90
2023-03-16T23:01:32.379Z,4.90
2023-03-16T23:03:59.008Z,4.90
2023-03-16T23:06:28.110Z,4.90
2023-03-16T23:08:55.984Z,4.90
2023-03-16T23:11:26.455Z,4.90
2023-03-16T23:13:54.676Z,4.90
2023-03-16T23:16:27.510Z,5.00
2023-03-16T23:18:54.209Z,5.00
2023-03-16T23:21:24.508Z,5.00
2023-03-16T23:24:03.224Z,5.00
2023-03-16T23:26:30.562Z,5.00
2023-03-16T23:28:58.871Z,5.00
2023-03-16T23:31:27.039Z,4.90
2023-03-16T23:33:53.913Z,5.00
2023-03-16T23:36:22.651Z,5.00
2023-03-16T23:38:50.360Z,5.00
2023-03-16T23:41:21.081Z,4.90
2023-03-16T23:43:48.622Z,4.90
2023-03-16T23:46:18.476Z,5.00
2023-03-16T23:48:46.313Z,5.00
2023-03-16T23:51:22.299Z,5.00
2023-03-16T23:53:49.519Z,5.00
2023-03-16T23:56:16.294Z,5.00
2023-03-16T23:58:42.919Z,5.00
